Time;durP1;ratioP1;P1;durP2;ratioP2;P2;SDS_P1;SDS_P2;PMS_P1;PMS_P2;Temp;Humidity;BMP_temperature;BMP_pressure;BME280_temperature;BME280_humidity;BME280_pressure;Samples;Min_cycle;Max_cycle;Signal;HPM_P1;HPM_P2
2023/08/15 00:01:04;;;;;;;7.60;3.90;;;;;;;25.97;46.30;98333.03;5028308;28;20668;-57
2023/08/15 00:03:30;;;;;;;5.05;3.53;;;;;;;25.65;46.74;98301.97;5028291;28;20208;-58
2023/08/15 00:05:56;;;;;;;5.20;3.42;;;;;;;25.69;47.11;98328.88;5028285;28;20182;-57
2023/08/15 00:08:21;;;;;;;4.55;4.15;;;;;;;25.49;47.51;98315.59;5028098;28;20189;-57
2023/08/15 00:10:47;;;;;;;4.93;3.38;;;;;;;25.42;47.30;98296.22;5028056;28;20209;-57
2023/08/15 00:13:12;;;;;;;3.10;2.90;;;;;;;25.47;48.03;98309.69;5028109;28;20192;-56
2023/08/15 00:15:38;;;;;;;3.53;3.20;;;;;;;25.49;48.12;98304.22;5028140;28;20661;-57
2023/08/15 00:18:03;;;;;;;4.20;3.55;;;;;;;25.51;47.73;98304.81;5028155;28;20248;-57
2023/08/15 00:20:29;;;;;;;5.78;3.97;;;;;;;25.72;47.83;98324.00;5028209;28;20248;-57
2023/08/15 00:22:54;;;;;;;5.38;3.67;;;;;;;25.64;48.16;98326.84;5028227;28;20177;-57
2023/08/15 00:25:19;;;;;;;5.50;4.00;;;;;;;25.57;47.76;98326.03;5030595;28;20209;-56
2023/08/15 00:27:45;;;;;;;4.65;4.25;;;;;;;25.43;48.05;98313.75;5027846;28;20284;-57
2023/08/15 00:30:11;;;;;;;4.25;3.85;;;;;;;25.43;48.40;98319.06;5028298;28;20190;-57
2023/08/15 00:32:36;;;;;;;4.68;3.90;;;;;;;25.34;48.79;98299.06;5028289;28;20221;-57
2023/08/15 00:35:05;;;;;;;4.45;3.58;;;;;;;25.45;49.90;98327.63;5028036;28;20560;-57
2023/08/15 00:37:34;;;;;;;5.30;3.55;;;;;;;25.40;50.25;98324.78;5031282;28;20202;-58
2023/08/15 00:40:00;;;;;;;4.00;3.65;;;;;;;25.31;49.48;98294.16;5031742;28;20177;-57
2023/08/15 00:42:26;;;;;;;4.07;3.60;;;;;;;25.57;48.96;98328.69;5031884;28;20390;-57
2023/08/15 00:44:51;;;;;;;4.63;3.92;;;;;;;25.49;48.96;98318.25;5031566;28;20256;-58
2023/08/15 00:47:18;;;;;;;4.57;4.00;;;;;;;25.60;48.77;98336.22;5031567;28;20186;-57
2023/08/15 00:49:44;;;;;;;4.88;3.80;;;;;;;25.49;49.16;98334.16;5031528;28;20181;-57
2023/08/15 00:52:12;;;;;;;4.15;3.63;;;;;;;25.51;48.74;98329.50;5031441;28;20225;-57
2023/08/15 00:54:45;;;;;;;4.30;3.90;;;;;;;25.18;49.37;98298.56;5031482;28;20185;-57
2023/08/15 00:57:11;;;;;;;7.07;4.20;;;;;;;25.31;49.65;98333.91;5031417;28;20264;-57
2023/08/15 00:59:37;;;;;;;5.57;3.63;;;;;;;25.06;50.49;98285.09;5033122;28;20320;-57
2023/08/15 01:02:03;;;;;;;5.15;4.53;;;;;;;25.13;50.58;98296.53;5033775;28;20178;-57
2023/08/15 01:04:30;;;;;;;6.95;3.83;;;;;;;25.17;50.76;98279.25;5033946;28;20174;-57
2023/08/15 01:06:56;;;;;;;3.78;3.35;;;;;;;25.30;51.14;98294.38;5033342;28;20648;-57
2023/08/15 01:09:21;;;;;;;5.95;3.97;;;;;;;25.28;51.57;98293.75;5033580;28;20181;-57
2023/08/15 01:12:07;;;;;;;6.78;3.85;;;;;;;25.31;51.69;98303.97;5033208;28;20216;-57
2023/08/15 01:14:43;;;;;;;6.30;3.60;;;;;;;25.14;52.12;98276.97;5033283;28;20325;-57
2023/08/15 01:17:12;;;;;;;8.63;6.97;;;;;;;25.23;51.40;98283.72;5033794;28;20197;-57
2023/08/15 01:19:49;;;;;;;4.45;4.07;;;;;;;25.25;51.11;98271.13;5033395;28;20725;-57
2023/08/15 01:22:22;;;;;;;3.97;3.70;;;;;;;25.32;50.82;98282.56;5033299;28;20184;-57
2023/08/15 01:24:49;;;;;;;4.20;3.78;;;;;;;25.53;51.00;98308.88;5033463;28;20239;-57
2023/08/15 01:27:15;;;;;;;6.25;3.97;;;;;;;25.38;49.97;98279.09;5033277;28;20548;-57
2023/08/15 01:29:40;;;;;;;4.07;3.67;;;;;;;25.35;50.66;98298.06;5033155;28;20174;-57
2023/08/15 01:32:24;;;;;;;6.57;3.88;;;;;;;25.17;51.82;98296.94;5033192;28;20711;-58
2023/08/15 01:34:58;;;;;;;4.55;4.15;;;;;;;25.10;51.61;98285.53;5032909;28;20555;-57
2023/08/15 01:37:29;;;;;;;5.57;3.67;;;;;;;25.06;51.91;98279.81;5033135;28;20177;-58
2023/08/15 01:39:56;;;;;;;5.05;3.85;;;;;;;25.09;50.90;98268.00;5033083;28;20184;-58
2023/08/15 01:42:22;;;;;;;4.20;3.80;;;;;;;25.25;50.63;98289.66;5032903;28;20206;-58
2023/08/15 01:44:50;;;;;;;4.45;4.15;;;;;;;24.88;51.25;98255.72;5033278;28;20228;-58
2023/08/15 01:47:16;;;;;;;4.60;4.20;;;;;;;25.12;51.36;98289.59;5029528;28;20661;-58
2023/08/15 01:49:41;;;;;;;4.28;3.90;;;;;;;25.04;51.39;98276.56;5030223;28;20194;-58
2023/08/15 01:52:06;;;;;;;4.40;4.00;;;;;;;25.14;51.55;98286.78;5030276;28;20220;-58
2023/08/15 01:54:32;;;;;;;6.63;4.82;;;;;;;25.01;51.81;98262.91;5030327;28;20781;-58
2023/08/15 01:56:57;;;;;;;7.05;4.80;;;;;;;25.31;50.97;98288.88;5030490;28;20193;-58
2023/08/15 01:59:23;;;;;;;11.82;5.85;;;;;;;25.26;50.84;98286.00;5030190;28;20196;-57
2023/08/15 02:01:49;;;;;;;7.55;4.65;;;;;;;25.05;50.89;98256.19;5030185;28;20284;-57
2023/08/15 02:04:14;;;;;;;7.43;4.80;;;;;;;25.26;50.98;98293.94;5030189;28;20534;-57
2023/08/15 02:06:39;;;;;;;5.25;4.60;;;;;;;25.11;50.31;98252.72;5029880;28;20256;-57
2023/08/15 02:09:05;;;;;;;6.53;4.15;;;;;;;25.29;49.77;98276.84;5030077;28;20566;-57
2023/08/15 02:11:30;;;;;;;5.57;4.70;;;;;;;25.31;49.98;98288.88;5029922;28;20220;-57
2023/08/15 02:13:56;;;;;;;5.55;3.88;;;;;;;25.13;49.64;98263.97;5029878;28;20190;-57
2023/08/15 02:16:22;;;;;;;6.13;4.20;;;;;;;25.30;49.49;98292.53;5029709;28;20205;-57
2023/08/15 02:18:48;;;;;;;3.90;3.60;;;;;;;25.06;50.17;98279.81;5031421;28;20268;-57
2023/08/15 02:21:13;;;;;;;5.78;4.32;;;;;;;24.89;50.50;98265.28;5032193;28;20204;-57
2023/08/15 02:23:38;;;;;;;7.97;3.92;;;;;;;24.78;51.28;98281.75;5032173;28;20636;-57
2023/08/15 02:26:04;;;;;;;4.50;4.10;;;;;;;24.53;51.79;98262.06;5032207;28;20174;-58
2023/08/15 02:28:31;;;;;;;7.68;4.18;;;;;;;24.65;51.81;98284.34;5032092;28;20658;-58
2023/08/15 02:30:56;;;;;;;4.43;4.00;;;;;;;24.52;52.57;98281.59;5032011;28;20209;-58
2023/08/15 02:33:22;;;;;;;7.20;4.45;;;;;;;24.58;52.39;98288.78;5032257;28;20180;-58
2023/08/15 02:35:50;;;;;;;7.35;4.28;;;;;;;24.48;52.27;98274.22;5031688;28;20640;-58
2023/08/15 02:38:16;;;;;;;8.93;4.30;;;;;;;24.52;52.50;98292.19;5031930;28;20253;-58
2023/08/15 02:40:42;;;;;;;6.47;4.13;;;;;;;24.52;52.83;98286.88;5031910;28;20268;-57
2023/08/15 02:43:08;;;;;;;5.28;4.03;;;;;;;24.61;52.29;98280.44;5031812;28;20178;-58
2023/08/15 02:45:33;;;;;;;5.35;4.18;;;;;;;24.46;51.82;98255.94;5031787;28;20201;-58
2023/08/15 02:47:58;;;;;;;4.53;4.00;;;;;;;24.50;51.00;98261.63;5031769;28;20196;-58
2023/08/15 02:50:24;;;;;;;4.18;3.75;;;;;;;24.75;51.08;98287.44;5031649;28;20178;-58
2023/08/15 02:52:50;;;;;;;4.25;3.95;;;;;;;24.56;51.53;98255.56;5031576;28;20178;-58
2023/08/15 02:55:15;;;;;;;5.53;4.00;;;;;;;24.54;51.81;98261.03;5031937;28;20174;-58
2023/08/15 02:57:40;;;;;;;4.85;3.58;;;;;;;24.58;51.68;98258.84;5031578;28;20306;-58
2023/08/15 03:00:07;;;;;;;4.25;3.85;;;;;;;24.70;51.48;98273.16;5031469;28;20178;-58
2023/08/15 03:02:33;;;;;;;4.50;3.88;;;;;;;24.71;51.54;98265.03;5031452;28;20182;-58
2023/08/15 03:04:59;;;;;;;4.15;3.75;;;;;;;24.66;51.88;98250.75;5031508;28;20182;-58
2023/08/15 03:07:24;;;;;;;4.75;4.15;;;;;;;24.68;51.90;98265.41;5031113;28;20669;-58
2023/08/15 03:09:49;;;;;;;5.65;4.00;;;;;;;24.71;52.02;98259.72;5031648;28;20173;-58
2023/08/15 03:12:15;;;;;;;4.93;3.88;;;;;;;24.72;51.86;98252.63;5031352;28;20216;-58
2023/08/15 03:14:40;;;;;;;5.07;3.72;;;;;;;24.84;52.15;98286.25;5031349;28;20170;-58
2023/08/15 03:17:07;;;;;;;4.43;4.05;;;;;;;24.64;52.92;98285.34;5031535;28;20273;-58
2023/08/15 03:19:33;;;;;;;7.65;4.03;;;;;;;24.62;53.66;98282.06;5031340;28;20181;-58
2023/08/15 03:21:58;;;;;;;4.00;3.70;;;;;;;24.58;53.90;98275.56;5030982;28;20182;-58
2023/08/15 03:24:27;;;;;;;4.40;4.00;;;;;;;24.60;54.54;98278.81;5031157;28;20170;-58
2023/08/15 03:26:52;;;;;;;4.43;3.78;;;;;;;24.53;54.41;98271.81;5031225;28;20259;-58
2023/08/15 03:29:17;;;;;;;5.15;4.15;;;;;;;24.60;54.90;98285.91;5031220;28;20695;-58
2023/08/15 03:31:43;;;;;;;5.72;4.68;;;;;;;24.44;55.55;98271.16;5031039;28;20209;-58
2023/08/15 03:34:08;;;;;;;5.15;4.22;;;;;;;24.36;55.74;98262.56;5030995;28;20543;-58
2023/08/15 03:36:34;;;;;;;5.00;3.67;;;;;;;24.47;55.62;98278.72;5030981;28;20198;-57
2023/08/15 03:38:59;;;;;;;4.18;3.70;;;;;;;24.32;55.64;98256.06;5031002;28;20174;-58
2023/08/15 03:41:25;;;;;;;7.18;4.43;;;;;;;24.41;56.43;98276.03;5031192;28;20296;-58
2023/08/15 03:43:50;;;;;;;4.32;3.92;;;;;;;24.21;56.13;98256.59;5030972;28;20173;-58
2023/08/15 03:46:15;;;;;;;8.82;4.05;;;;;;;24.31;56.02;98284.31;5030632;28;20193;-58
2023/08/15 03:48:41;;;;;;;4.72;4.25;;;;;;;24.38;55.39;98287.00;5030912;28;20166;-57
2023/08/15 03:51:07;;;;;;;4.45;4.05;;;;;;;24.26;55.89;98289.38;5030734;28;20213;-57
2023/08/15 03:53:33;;;;;;;4.60;3.90;;;;;;;24.26;55.51;98293.84;5030852;28;20184;-56
2023/08/15 03:55:58;;;;;;;4.03;3.50;;;;;;;24.24;55.00;98283.47;5030879;28;20322;-58
2023/08/15 03:58:24;;;;;;;5.32;4.32;;;;;;;24.23;55.51;98296.06;5031072;28;20181;-58
2023/08/15 04:00:50;;;;;;;4.35;3.85;;;;;;;24.06;55.95;98274.38;5030793;28;20200;-57
2023/08/15 04:03:16;;;;;;;3.90;3.60;;;;;;;23.88;56.22;98260.81;5028171;28;20223;-58
2023/08/15 04:05:48;;;;;;;4.35;3.95;;;;;;;23.85;56.91;98267.28;5028254;28;20221;-58
2023/08/15 04:08:15;;;;;;;4.18;3.78;;;;;;;24.08;57.23;98303.28;5027987;28;20232;-58
2023/08/15 04:10:43;;;;;;;4.18;3.75;;;;;;;24.04;56.35;98287.78;5028592;28;20643;-58
2023/08/15 04:13:09;;;;;;;4.10;3.63;;;;;;;24.07;56.20;98285.78;5032133;28;20629;-58
2023/08/15 04:15:36;;;;;;;4.75;4.05;;;;;;;24.08;56.30;98287.41;5032059;28;20185;-58
2023/08/15 04:18:04;;;;;;;4.70;4.30;;;;;;;24.24;55.36;98295.84;5012142;28;20752;-58
2023/08/15 04:20:30;;;;;;;5.25;4.30;;;;;;;24.27;56.18;98304.22;5012187;28;20281;-58
2023/08/15 04:22:56;;;;;;;5.68;4.28;;;;;;;24.17;55.94;98287.06;5012143;28;20717;-58
2023/08/15 04:25:21;;;;;;;4.22;3.83;;;;;;;24.23;56.29;98290.78;5012194;28;20182;-57
2023/08/15 04:27:46;;;;;;;6.13;4.05;;;;;;;24.31;56.11;98307.31;5011807;28;20708;-57
2023/08/15 04:30:12;;;;;;;4.97;4.57;;;;;;;24.42;55.84;98309.41;5011973;28;20277;-57
2023/08/15 04:32:37;;;;;;;4.80;4.40;;;;;;;24.45;55.91;98314.31;5012041;28;20677;-57
2023/08/15 04:35:03;;;;;;;4.97;4.35;;;;;;;24.46;56.25;98322.06;4995581;28;20768;-57
2023/08/15 04:37:29;;;;;;;7.95;3.75;;;;;;;24.49;55.65;98324.31;4992252;28;20234;-57
2023/08/15 04:39:54;;;;;;;5.05;3.78;;;;;;;24.33;56.07;98329.09;4992188;28;20685;-57
2023/08/15 04:42:20;;;;;;;4.43;4.10;;;;;;;23.95;56.88;98300.53;4992508;28;20191;-57
2023/08/15 04:44:46;;;;;;;4.30;3.88;;;;;;;23.83;57.56;98294.09;4992136;28;20184;-57
2023/08/15 04:47:11;;;;;;;4.75;3.80;;;;;;;24.05;57.05;98325.63;4992185;28;20187;-57
2023/08/15 04:49:36;;;;;;;4.53;4.13;;;;;;;23.98;56.89;98299.13;5006843;28;20302;-57
2023/08/15 04:52:02;;;;;;;4.05;3.67;;;;;;;24.15;56.57;98316.34;5011650;28;20233;-58
2023/08/15 04:54:27;;;;;;;4.40;4.00;;;;;;;24.19;56.44;98328.16;5011717;28;20214;-58
2023/08/15 04:56:53;;;;;;;4.22;3.70;;;;;;;24.10;56.41;98316.09;5011650;28;20182;-58
2023/08/15 04:59:18;;;;;;;5.55;3.67;;;;;;;24.12;56.37;98323.03;5011571;28;20628;-58
2023/08/15 05:01:44;;;;;;;4.82;4.13;;;;;;;24.02;56.65;98304.03;5011517;28;20717;-57
2023/08/15 05:04:10;;;;;;;4.82;4.03;;;;;;;24.16;56.83;98311.88;5013016;28;20183;-57
2023/08/15 05:06:35;;;;;;;5.95;3.65;;;;;;;24.25;56.23;98348.56;5033489;28;20256;-57
2023/08/15 05:09:01;;;;;;;4.82;4.05;;;;;;;24.17;57.09;98318.78;5033706;28;20178;-57
2023/08/15 05:11:26;;;;;;;4.10;3.80;;;;;;;24.21;57.93;98331.44;5033568;28;20651;-58
2023/08/15 05:13:52;;;;;;;5.07;4.53;;;;;;;24.20;58.98;98347.50;5033959;28;20511;-57
2023/08/15 05:16:17;;;;;;;4.88;4.40;;;;;;;23.98;57.18;98297.50;5033887;28;20185;-57
2023/08/15 05:18:42;;;;;;;4.18;3.80;;;;;;;24.14;57.53;98341.16;5033630;28;20260;-57
2023/08/15 05:21:08;;;;;;;4.28;3.88;;;;;;;24.16;57.61;98351.53;5034120;28;20232;-57
2023/08/15 05:23:33;;;;;;;5.47;4.53;;;;;;;24.19;58.24;98328.16;5032214;28;20255;-57
2023/08/15 05:25:59;;;;;;;4.45;4.05;;;;;;;23.92;59.42;98314.13;5033847;28;20545;-57
2023/08/15 05:28:24;;;;;;;5.55;4.28;;;;;;;24.10;59.41;98342.53;5033748;28;20166;-57
2023/08/15 05:30:49;;;;;;;5.57;4.50;;;;;;;24.12;59.69;98333.63;5033608;28;20205;-57
2023/08/15 05:33:15;;;;;;;4.70;3.95;;;;;;;24.13;59.88;98351.13;5031018;28;20182;-57
2023/08/15 05:35:40;;;;;;;4.90;4.20;;;;;;;23.97;60.04;98325.78;5031152;28;20190;-58
2023/08/15 05:38:06;;;;;;;5.13;4.32;;;;;;;24.13;60.32;98344.81;5031146;28;20597;-58
2023/08/15 05:40:33;;;;;;;4.60;4.20;;;;;;;24.02;61.24;98347.97;5030963;28;20639;-58
2023/08/15 05:42:58;;;;;;;4.63;4.20;;;;;;;23.96;60.85;98326.75;5030953;28;20221;-58
2023/08/15 05:45:24;;;;;;;4.53;4.05;;;;;;;23.86;60.54;98315.69;5031265;28;20640;-58
2023/08/15 05:47:49;;;;;;;6.38;4.32;;;;;;;23.90;60.57;98327.50;5030893;28;20256;-58
2023/08/15 05:50:15;;;;;;;5.10;4.60;;;;;;;23.92;60.57;98335.25;5030881;28;20700;-58
2023/08/15 05:52:40;;;;;;;6.88;4.47;;;;;;;23.88;61.42;98326.09;5030995;28;20185;-58
2023/08/15 05:55:06;;;;;;;4.82;4.32;;;;;;;23.89;61.22;98325.09;5030863;28;20188;-57
2023/08/15 05:57:31;;;;;;;7.25;4.60;;;;;;;23.91;62.13;98317.78;5030529;28;20707;-57
2023/08/15 05:59:57;;;;;;;6.20;4.60;;;;;;;24.12;62.52;98354.78;5030585;28;20197;-57
2023/08/15 06:02:22;;;;;;;5.05;4.55;;;;;;;23.88;63.22;98329.53;5030524;28;20222;-58
2023/08/15 06:04:48;;;;;;;4.57;4.18;;;;;;;23.97;63.05;98332.88;5045019;28;20189;-58
2023/08/15 06:07:13;;;;;;;5.55;4.53;;;;;;;23.94;64.61;98349.13;5050309;28;20184;-58
2023/08/15 06:09:39;;;;;;;6.03;4.60;;;;;;;23.62;66.54;98307.31;5050628;28;20185;-58
2023/08/15 06:12:05;;;;;;;4.80;4.40;;;;;;;23.79;66.26;98330.66;5050208;28;20205;-58
2023/08/15 06:14:31;;;;;;;6.90;5.10;;;;;;;23.82;66.51;98325.00;5050194;28;20715;-58
2023/08/15 06:16:57;;;;;;;5.88;5.00;;;;;;;23.84;67.75;98313.22;5050105;28;20607;-58
2023/08/15 06:19:22;;;;;;;7.15;4.53;;;;;;;23.86;67.74;98315.69;5050199;28;20177;-58
2023/08/15 06:21:48;;;;;;;6.50;4.50;;;;;;;24.12;66.23;98347.63;5050210;28;20193;-58
2023/08/15 06:24:13;;;;;;;4.95;4.50;;;;;;;24.02;65.56;98330.47;5050184;28;20188;-58
2023/08/15 06:26:39;;;;;;;5.60;4.63;;;;;;;23.85;66.20;98304.28;5050070;28;20667;-58
2023/08/15 06:29:05;;;;;;;5.50;4.95;;;;;;;23.83;66.82;98303.66;5049978;28;20216;-58
2023/08/15 06:31:35;;;;;;;5.18;4.55;;;;;;;23.91;67.46;98312.50;5049945;28;20212;-57
2023/08/15 06:34:02;;;;;;;4.90;4.50;;;;;;;23.84;68.37;98313.22;5047523;28;20192;-58
2023/08/15 06:36:28;;;;;;;4.90;4.47;;;;;;;23.69;69.12;98293.97;5029834;28;20243;-58
2023/08/15 06:38:53;;;;;;;5.75;5.32;;;;;;;23.76;70.81;98315.19;5029814;28;20363;-57
2023/08/15 06:41:18;;;;;;;5.18;4.65;;;;;;;23.81;72.74;98312.78;5029901;28;20293;-57
2023/08/15 06:43:44;;;;;;;6.47;4.90;;;;;;;23.89;73.10;98314.50;5029739;28;20240;-57
2023/08/15 06:46:11;;;;;;;7.70;5.10;;;;;;;23.83;73.14;98309.97;5029638;28;20735;-57
2023/08/15 06:48:36;;;;;;;5.50;5.10;;;;;;;23.70;73.32;98289.50;5029870;28;20186;-57
2023/08/15 06:51:03;;;;;;;5.65;5.15;;;;;;;23.88;72.33;98307.59;5029405;28;20295;-57
2023/08/15 06:53:28;;;;;;;6.15;4.78;;;;;;;23.95;70.17;98295.25;5029497;28;20552;-57
2023/08/15 06:55:54;;;;;;;8.95;5.10;;;;;;;23.89;69.91;98299.47;5029613;28;20173;-57
2023/08/15 06:58:20;;;;;;;5.10;4.60;;;;;;;23.94;69.76;98288.34;5029849;28;20178;-56
2023/08/15 07:00:46;;;;;;;5.47;4.90;;;;;;;24.08;70.98;98330.53;5029396;28;20213;-57
2023/08/15 07:03:13;;;;;;;5.45;4.95;;;;;;;23.92;71.78;98305.19;5029384;28;20275;-57
2023/08/15 07:05:38;;;;;;;6.65;5.00;;;;;;;23.96;71.72;98316.19;5029223;28;20239;-57
2023/08/15 07:08:05;;;;;;;6.03;5.47;;;;;;;23.91;71.08;98296.63;5028975;28;20324;-57
2023/08/15 07:10:30;;;;;;;6.35;5.35;;;;;;;23.83;71.53;98294.91;5029205;28;20269;-57
2023/08/15 07:12:57;;;;;;;6.75;4.63;;;;;;;23.91;72.56;98297.47;5029437;28;20209;-57
2023/08/15 07:15:22;;;;;;;8.63;4.95;;;;;;;23.73;73.65;98289.16;5032041;28;20189;-58
2023/08/15 07:17:47;;;;;;;6.53;5.40;;;;;;;23.77;74.54;98308.09;5031866;28;20174;-57
2023/08/15 07:20:16;;;;;;;5.35;4.85;;;;;;;23.77;74.22;98301.78;5031290;28;20655;-56
2023/08/15 07:22:41;;;;;;;6.43;4.78;;;;;;;23.61;74.86;98290.63;5031518;28;20947;-57
2023/08/15 07:25:07;;;;;;;8.07;5.65;;;;;;;23.44;76.27;98276.06;5031616;28;20602;-57
2023/08/15 07:27:33;;;;;;;6.50;4.72;;;;;;;23.37;77.28;98277.81;5031578;28;20185;-57
2023/08/15 07:29:58;;;;;;;6.13;4.85;;;;;;;23.65;77.13;98307.75;5031215;28;20664;-56
2023/08/15 07:32:26;;;;;;;6.18;5.50;;;;;;;23.54;77.81;98288.97;5031683;28;20208;-57
2023/08/15 07:34:52;;;;;;;5.85;5.25;;;;;;;23.31;78.75;98269.84;5031393;28;20595;-57
2023/08/15 07:37:17;;;;;;;5.82;5.07;;;;;;;23.40;79.43;98282.72;5031047;28;20204;-57
2023/08/15 07:39:42;;;;;;;6.30;5.30;;;;;;;23.56;79.66;98313.38;5031402;28;20184;-56
2023/08/15 07:42:08;;;;;;;6.38;5.30;;;;;;;23.36;80.28;98285.94;5031349;28;20182;-56
2023/08/15 07:44:33;;;;;;;6.22;5.50;;;;;;;23.35;80.59;98289.56;5031014;28;20174;-57
2023/08/15 07:46:59;;;;;;;7.68;5.35;;;;;;;23.18;81.99;98275.81;5030324;28;20169;-57
2023/08/15 07:49:24;;;;;;;6.10;5.38;;;;;;;23.39;82.39;98301.41;5031273;28;20264;-57
2023/08/15 07:51:49;;;;;;;7.88;5.43;;;;;;;23.33;83.31;98294.22;5031210;28;20198;-57
2023/08/15 07:54:15;;;;;;;8.73;5.97;;;;;;;23.49;82.40;98301.91;5031218;28;20180;-57
2023/08/15 07:56:40;;;;;;;6.10;5.40;;;;;;;23.34;82.49;98272.09;5031327;28;20178;-57
2023/08/15 07:59:06;;;;;;;5.68;5.18;;;;;;;23.58;82.48;98296.31;5031182;28;20196;-57
2023/08/15 08:01:31;;;;;;;6.82;5.30;;;;;;;23.34;82.54;98258.88;5031123;28;20265;-57
2023/08/15 08:03:57;;;;;;;7.60;6.20;;;;;;;23.58;82.45;98292.84;5031248;28;20176;-57
2023/08/15 08:06:22;;;;;;;5.90;5.30;;;;;;;23.66;82.39;98298.03;5031033;28;20224;-57
2023/08/15 08:08:48;;;;;;;6.78;5.97;;;;;;;23.60;82.96;98299.56;5031183;28;20236;-57
2023/08/15 08:11:13;;;;;;;12.63;5.65;;;;;;;23.52;83.53;98290.97;5031139;28;20201;-57
2023/08/15 08:13:39;;;;;;;6.82;6.10;;;;;;;23.42;84.60;98278.06;5030878;28;20189;-57
2023/08/15 08:16:04;;;;;;;9.05;5.95;;;;;;;23.56;84.98;98302.78;5031062;28;20605;-57
2023/08/15 08:18:30;;;;;;;6.05;5.45;;;;;;;23.60;84.85;98304.84;5030966;28;20180;-57
2023/08/15 08:20:55;;;;;;;6.82;6.13;;;;;;;23.57;85.18;98294.69;5031042;28;20520;-57
2023/08/15 08:23:21;;;;;;;5.90;5.18;;;;;;;23.51;84.98;98276.13;5030949;28;20181;-57
2023/08/15 08:25:46;;;;;;;6.57;5.88;;;;;;;23.50;85.37;98283.25;5030855;28;20174;-57
2023/08/15 08:28:13;;;;;;;7.15;5.28;;;;;;;23.47;85.34;98267.75;5030580;28;20170;-57
2023/08/15 08:30:38;;;;;;;5.90;5.40;;;;;;;23.47;85.54;98275.69;5030970;28;20177;-57
2023/08/15 08:33:04;;;;;;;5.80;5.30;;;;;;;23.48;85.84;98273.88;5030925;28;20182;-57
2023/08/15 08:35:29;;;;;;;7.43;5.70;;;;;;;23.48;86.08;98273.88;5031186;28;20174;-57
2023/08/15 08:37:55;;;;;;;6.72;5.82;;;;;;;23.60;87.10;98293.50;5030702;28;20265;-58
2023/08/15 08:40:21;;;;;;;6.60;5.90;;;;;;;23.58;87.40;98279.63;5048150;28;20254;-58
2023/08/15 08:42:46;;;;;;;6.70;6.10;;;;;;;23.57;87.33;98268.28;5048152;28;20193;-59
2023/08/15 08:45:13;;;;;;;7.00;6.13;;;;;;;23.67;88.11;98298.63;5048105;28;20191;-58
2023/08/15 08:47:40;;;;;;;8.75;6.30;;;;;;;23.57;88.46;98267.44;5048079;28;20189;-57
2023/08/15 08:50:09;;;;;;;8.38;6.55;;;;;;;23.69;89.15;98293.97;5048036;28;20727;-57
2023/08/15 08:52:38;;;;;;;6.93;6.20;;;;;;;23.73;89.62;98298.88;5048072;28;20209;-58
2023/08/15 08:55:05;;;;;;;7.68;6.30;;;;;;;23.57;89.13;98265.63;5048070;28;20189;-58
2023/08/15 08:57:32;;;;;;;10.50;5.88;;;;;;;23.73;89.85;98298.88;5049761;28;20216;-57
2023/08/15 09:00:00;;;;;;;8.48;5.72;;;;;;;23.60;89.79;98262.59;4992281;28;20784;-57
2023/08/15 09:02:26;;;;;;;7.53;5.95;;;;;;;23.52;90.43;98254.81;4992243;28;20214;-58
2023/08/15 09:04:54;;;;;;;7.45;6.75;;;;;;;23.53;91.22;98263.56;4992191;28;20298;-58
2023/08/15 09:07:20;;;;;;;8.35;7.53;;;;;;;23.60;91.67;98285.56;4992163;28;20341;-58
2023/08/15 09:09:45;;;;;;;9.30;6.70;;;;;;;23.51;91.93;98278.75;4992394;28;20661;-58
2023/08/15 09:12:35;;;;;;;8.02;6.45;;;;;;;23.72;91.92;98305.19;4992214;28;20253;-57
2023/08/15 09:15:00;;;;;;;6.97;6.05;;;;;;;23.51;92.56;98278.75;4992355;28;20187;-58
2023/08/15 09:17:26;;;;;;;7.75;6.32;;;;;;;23.62;93.62;98312.59;4972668;28;20195;-58
2023/08/15 09:19:53;;;;;;;9.32;6.35;;;;;;;23.38;94.07;98282.13;4972632;28;20226;-58
2023/08/15 09:22:22;;;;;;;7.55;6.00;;;;;;;23.36;94.22;98270.91;4953247;29;20688;-58
2023/08/15 09:24:50;;;;;;;8.82;6.35;;;;;;;23.62;94.39;98308.16;4953340;29;20593;-59
2023/08/15 09:27:15;;;;;;;11.40;6.63;;;;;;;23.48;95.95;98305.56;4953206;29;20208;-58
2023/08/15 09:29:40;;;;;;;8.75;6.10;;;;;;;23.35;97.34;98305.41;4953294;29;20177;-57
2023/08/15 09:32:07;;;;;;;9.32;5.95;;;;;;;23.42;97.86;98306.31;4991472;28;20791;-57
2023/08/15 09:34:33;;;;;;;9.48;7.00;;;;;;;23.30;98.17;98289.34;4991998;28;20513;-57
2023/08/15 09:36:58;;;;;;;7.00;6.30;;;;;;;23.17;99.39;98281.25;4991895;28;20197;-57
2023/08/15 09:39:24;;;;;;;8.05;6.28;;;;;;;23.39;99.37;98307.50;4991921;28;20179;-58
2023/08/15 09:41:52;;;;;;;6.90;6.20;;;;;;;23.46;99.29;98313.69;4991841;28;20191;-57
2023/08/15 09:44:30;;;;;;;7.30;6.72;;;;;;;23.28;100.00;98278.97;4991776;28;20650;-57
2023/08/15 09:46:55;;;;;;;8.10;6.55;;;;;;;23.25;100.00;98299.66;4991707;28;20615;-57
2023/08/15 09:49:21;;;;;;;9.75;6.82;;;;;;;23.13;100.00;98291.34;5026404;28;20281;-58
2023/08/15 09:51:48;;;;;;;8.95;6.82;;;;;;;23.18;100.00;98317.22;5030963;28;20292;-58
2023/08/15 09:54:16;;;;;;;8.00;7.30;;;;;;;23.17;100.00;98308.50;5033099;28;20189;-56
2023/08/15 09:56:42;;;;;;;8.07;7.03;;;;;;;23.02;100.00;98277.81;5033406;28;20177;-56
2023/08/15 09:59:08;;;;;;;7.60;7.00;;;;;;;22.87;100.00;98284.94;5033320;28;20209;-58
2023/08/15 10:01:36;;;;;;;7.90;7.13;;;;;;;23.09;100.00;98321.78;5033273;28;20217;-57
2023/08/15 10:04:11;;;;;;;7.68;6.93;;;;;;;23.06;100.00;98297.53;5033302;28;20236;-57
2023/08/15 10:06:38;;;;;;;9.40;7.20;;;;;;;22.96;100.00;98302.31;5032996;28;20192;-57
2023/08/15 10:09:05;;;;;;;8.50;7.45;;;;;;;23.10;100.00;98327.84;5032462;28;20190;-57
2023/08/15 10:11:35;;;;;;;8.55;7.75;;;;;;;22.97;100.00;98299.47;5033001;28;20288;-57
2023/08/15 10:14:02;;;;;;;7.70;7.00;;;;;;;22.91;100.00;98310.78;5032826;28;20617;-57
2023/08/15 10:16:29;;;;;;;7.68;6.97;;;;;;;22.81;100.00;98323.47;5033011;28;20205;-57
2023/08/15 10:18:57;;;;;;;7.45;6.75;;;;;;;22.76;100.00;98311.81;5032985;28;20205;-57
2023/08/15 10:21:23;;;;;;;7.85;7.22;;;;;;;22.57;100.00;98299.19;5032816;28;20216;-57
2023/08/15 10:23:52;;;;;;;7.40;6.70;;;;;;;22.52;100.00;98325.28;5050000;28;20276;-57
2023/08/15 10:26:17;;;;;;;7.32;6.70;;;;;;;22.25;100.00;98304.78;5050062;28;20189;-57
2023/08/15 10:28:45;;;;;;;6.93;6.32;;;;;;;22.14;100.00;98297.31;5049888;28;20254;-57
2023/08/15 10:31:11;;;;;;;7.05;6.35;;;;;;;22.04;100.00;98291.47;5050019;28;20225;-58
2023/08/15 10:33:37;;;;;;;7.30;6.68;;;;;;;22.16;100.00;98316.41;5049976;28;20776;-58
2023/08/15 10:36:02;;;;;;;6.68;6.07;;;;;;;22.12;100.00;98317.75;5049831;28;20188;-58
2023/08/15 10:38:39;;;;;;;7.88;7.13;;;;;;;21.92;100.00;98287.66;5049777;28;20185;-57
2023/08/15 10:41:06;;;;;;;7.28;6.57;;;;;;;22.05;100.00;98322.94;5049889;28;20189;-57
2023/08/15 10:43:36;;;;;;;7.63;6.93;;;;;;;22.03;100.00;98324.09;5049756;28;20224;-57
2023/08/15 10:46:06;;;;;;;7.50;6.70;;;;;;;22.04;100.00;98299.38;5049833;28;20177;-57
2023/08/15 10:48:49;;;;;;;7.20;6.60;;;;;;;22.11;100.00;98313.47;5049576;28;20189;-57
2023/08/15 10:51:23;;;;;;;7.30;5.93;;;;;;;22.08;100.00;98311.22;5049331;28;20699;-57
2023/08/15 10:53:50;;;;;;;7.00;6.38;;;;;;;22.07;100.00;98323.56;5047555;28;20200;-57
2023/08/15 10:56:18;;;;;;;6.50;5.95;;;;;;;21.98;100.00;98313.28;5029531;28;20220;-56
2023/08/15 10:58:45;;;;;;;7.03;6.32;;;;;;;21.95;100.00;98311.00;5029731;28;20251;-57
2023/08/15 11:01:15;;;;;;;6.75;6.15;;;;;;;21.88;100.00;98292.47;5032024;28;20213;-57
2023/08/15 11:03:42;;;;;;;6.85;6.32;;;;;;;21.82;100.00;98268.63;5031995;28;20575;-57
2023/08/15 11:06:14;;;;;;;6.55;6.05;;;;;;;22.05;100.00;98298.38;5031905;28;20269;-57
2023/08/15 11:08:51;;;;;;;6.50;6.00;;;;;;;22.08;100.00;98300.69;5029216;28;20284;-57
2023/08/15 11:11:17;;;;;;;7.88;6.55;;;;;;;21.99;100.00;98262.22;5029691;28;20216;-57
2023/08/15 11:13:47;;;;;;;7.18;6.57;;;;;;;22.15;100.00;98278.66;5029428;28;20276;-57
2023/08/15 11:16:17;;;;;;;7.03;6.43;;;;;;;22.23;100.00;98290.94;5029390;28;20189;-57
2023/08/15 11:18:43;;;;;;;9.02;6.70;;;;;;;22.11;100.00;98266.88;5029309;28;20224;-57
2023/08/15 11:21:11;;;;;;;8.63;6.45;;;;;;;22.06;100.00;98261.31;5029262;28;20213;-57
2023/08/15 11:23:38;;;;;;;6.70;6.00;;;;;;;22.17;100.00;98265.31;5029301;28;20178;-58
2023/08/15 11:26:09;;;;;;;7.05;6.10;;;;;;;22.32;100.00;98261.69;5029147;28;20186;-58
2023/08/15 11:28:36;;;;;;;7.20;6.50;;;;;;;22.25;100.00;98247.59;5028919;28;20269;-58